TimeMDT,TemperatureF,Dew PointF,Humidity,Sea Level PressureIn,VisibilityMPH,Wind Direction,Wind SpeedMPH,Gust SpeedMPH,PrecipitationIn,Events,Conditions,WindDirDegrees,DateUTC
12:15 AM,28.4,-9.4,19,30.29,10.0,WSW,8.1,-,N/A,,Clear,250,2012-10-08 06:15:00
12:35 AM,28.4,-9.4,19,30.28,10.0,West,15.0,18.4,N/A,,Clear,260,2012-10-08 06:35:00
12:55 AM,28.4,-7.6,21,30.28,10.0,WSW,11.5,20.7,N/A,,Clear,250,2012-10-08 06:55:00
1:15 AM,28.4,-9.4,19,30.28,10.0,West,15.0,19.6,N/A,,Clear,260,2012-10-08 07:15:00
1:35 AM,28.4,-9.4,19,30.28,10.0,WSW,17.3,-,N/A,,Clear,250,2012-10-08 07:35:00
1:55 AM,30.2,-9.4,18,30.29,10.0,WSW,12.7,19.6,N/A,,Clear,250,2012-10-08 07:55:00
2:15 AM,30.2,-9.4,18,30.28,10.0,WSW,13.8,-,N/A,,Clear,250,2012-10-08 08:15:00
2:35 AM,30.2,-7.6,19,30.29,10.0,WSW,10.4,20.7,N/A,,Clear,250,2012-10-08 08:35:00
2:55 AM,30.2,-7.6,19,30.28,10.0,West,16.1,21.9,N/A,,Clear,260,2012-10-08 08:55:00
3:15 AM,28.4,-5.8,23,30.27,10.0,WSW,15.0,24.2,N/A,,Clear,250,2012-10-08 09:15:00
3:35 AM,30.2,-4.0,23,30.28,10.0,West,16.1,21.9,N/A,,Clear,260,2012-10-08 09:35:00
3:55 AM,28.4,-4.0,25,30.27,10.0,West,17.3,20.7,N/A,,Clear,260,2012-10-08 09:55:00
4:15 AM,30.2,-2.2,25,30.26,10.0,West,19.6,26.5,N/A,,Clear,260,2012-10-08 10:15:00
4:35 AM,28.4,-2.2,27,30.27,10.0,West,12.7,-,N/A,,Clear,270,2012-10-08 10:35:00
4:55 AM,30.2,-2.2,25,30.27,10.0,West,15.0,-,N/A,,Clear,260,2012-10-08 10:55:00
5:15 AM,28.4,-0.4,29,30.27,10.0,West,16.1,-,N/A,,Clear,270,2012-10-08 11:15:00
5:35 AM,28.4,-0.4,29,30.27,10.0,WSW,13.8,24.2,N/A,,Clear,250,2012-10-08 11:35:00
5:55 AM,28.4,-2.2,27,30.27,10.0,WSW,10.4,18.4,N/A,,Clear,250,2012-10-08 11:55:00
6:15 AM,28.4,-2.2,27,30.26,10.0,WSW,13.8,-,N/A,,Clear,250,2012-10-08 12:15:00
6:35 AM,28.4,-4.0,25,30.26,10.0,West,12.7,18.4,N/A,,Clear,260,2012-10-08 12:35:00
6:55 AM,30.2,-4.0,23,30.26,10.0,WSW,9.2,-,N/A,,Clear,240,2012-10-08 12:55:00
7:15 AM,30.2,-5.8,21,30.26,10.0,WSW,12.7,18.4,N/A,,Clear,250,2012-10-08 13:15:00
7:35 AM,30.2,-5.8,21,30.27,10.0,WSW,8.1,18.4,N/A,,Clear,250,2012-10-08 13:35:00
7:55 AM,30.2,-4.0,23,30.27,10.0,West,8.1,-,N/A,,Clear,260,2012-10-08 13:55:00
8:15 AM,30.2,-4.0,23,30.27,10.0,West,8.1,-,N/A,,Clear,260,2012-10-08 14:15:00
8:35 AM,33.8,-7.6,17,30.28,10.0,SW,10.4,21.9,N/A,,Clear,230,2012-10-08 14:35:00
8:55 AM,35.6,-7.6,16,30.28,10.0,WSW,12.7,21.9,N/A,,Clear,240,2012-10-08 14:55:00
9:15 AM,37.4,-7.6,15,30.28,10.0,WSW,11.5,21.9,N/A,,Clear,240,2012-10-08 15:15:00
9:25 AM,37.4,-7.6,15,30.28,10.0,WSW,12.7,20.7,N/A,,Clear,250,2012-10-08 15:25:00
9:45 AM,37.4,-5.8,16,30.28,10.0,WSW,8.1,-,N/A,,Clear,240,2012-10-08 15:45:00
10:05 AM,37.4,-5.8,16,30.28,10.0,West,11.5,17.3,N/A,,Clear,270,2012-10-08 16:05:00
10:26 AM,37.4,-7.6,15,30.28,10.0,West,9.2,18.4,N/A,,Clear,260,2012-10-08 16:26:00
10:45 AM,37.4,-9.4,13,30.28,10.0,West,19.6,-,N/A,,Clear,280,2012-10-08 16:45:00
11:04 AM,41.0,-11.2,11,30.27,10.0,West,13.8,25.3,N/A,,Clear,270,2012-10-08 17:04:00
11:24 AM,41.0,-14.8,9,30.27,10.0,WSW,16.1,32.2,N/A,,Clear,250,2012-10-08 17:24:00
11:44 AM,42.8,-14.8,8,30.27,10.0,WSW,10.4,35.7,N/A,,Clear,240,2012-10-08 17:44:00
12:03 PM,42.8,-18.4,7,30.26,10.0,WSW,17.3,32.2,N/A,,Clear,240,2012-10-08 18:03:00
12:24 PM,44.6,-18.4,7,30.26,10.0,WSW,20.7,32.2,N/A,,Clear,250,2012-10-08 18:24:00
12:44 PM,44.6,-20.2,6,30.26,10.0,West,17.3,36.8,N/A,,Clear,270,2012-10-08 18:44:00
1:03 PM,44.6,-23.8,5,30.25,10.0,West,28.8,36.8,N/A,,Clear,270,2012-10-08 19:03:00
1:23 PM,44.6,-22.0,5,30.25,10.0,West,24.2,41.4,N/A,,Clear,270,2012-10-08 19:23:00
1:42 PM,44.6,-23.8,5,30.24,10.0,West,31.1,41.4,N/A,,Clear,270,2012-10-08 19:42:00
2:03 PM,44.6,-25.6,5,30.23,10.0,West,29.9,41.4,N/A,,Clear,280,2012-10-08 20:03:00
2:23 PM,44.6,-31.0,4,30.24,10.0,West,21.9,42.6,N/A,,Clear,270,2012-10-08 20:23:00
2:43 PM,44.6,-31.0,4,30.23,10.0,West,32.2,49.5,N/A,,Clear,280,2012-10-08 20:43:00
3:01 PM,44.6,-29.2,4,30.22,10.0,West,26.5,49.5,N/A,,Clear,260,2012-10-08 21:01:00
3:25 PM,44.6,-27.4,4,30.23,10.0,West,24.2,38.0,N/A,,Clear,270,2012-10-08 21:25:00
3:43 PM,44.6,-34.6,4,30.22,10.0,West,34.5,49.5,N/A,,Clear,270,2012-10-08 21:43:00
4:01 PM,44.6,-32.8,4,30.22,10.0,West,27.6,36.8,N/A,,Clear,270,2012-10-08 22:01:00
4:23 PM,44.6,-36.4,4,30.22,10.0,West,34.5,49.5,N/A,,Clear,260,2012-10-08 22:23:00
4:40 PM,44.6,-34.6,4,30.22,10.0,West,32.2,46.0,N/A,,Clear,270,2012-10-08 22:40:00
5:00 PM,44.6,-41.8,4,30.22,10.0,West,36.8,46.0,N/A,,Clear,270,2012-10-08 23:00:00
5:20 PM,44.6,-43.6,4,30.22,10.0,West,32.2,43.7,N/A,,Clear,270,2012-10-08 23:20:00
5:40 PM,42.8,-43.6,4,30.22,10.0,West,35.7,44.9,N/A,,Clear,270,2012-10-08 23:40:00
6:23 PM,41.0,-34.6,4,30.23,10.0,West,28.8,34.5,N/A,,Clear,270,2012-10-09 00:23:00
6:43 PM,37.4,-32.8,4,30.24,10.0,West,21.9,29.9,N/A,,Clear,270,2012-10-09 00:43:00
7:22 PM,37.4,-25.6,6,30.24,10.0,West,23.0,-,N/A,,Clear,270,2012-10-09 01:22:00
7:45 PM,37.4,-18.4,9,30.25,10.0,West,19.6,24.2,N/A,,Clear,260,2012-10-09 01:45:00
8:01 PM,37.4,-18.4,9,30.26,10.0,West,19.6,26.5,N/A,,Clear,270,2012-10-09 02:01:00
8:23 PM,33.8,-14.8,12,30.26,10.0,West,12.7,23.0,N/A,,Clear,260,2012-10-09 02:23:00
8:43 PM,35.6,-14.8,11,30.26,10.0,West,16.1,23.0,N/A,,Clear,260,2012-10-09 02:43:00
9:03 PM,35.6,-13.0,12,30.26,10.0,West,18.4,26.5,N/A,,Clear,260,2012-10-09 03:03:00
9:43 PM,33.8,-9.4,15,30.27,10.0,West,16.1,24.2,N/A,,Clear,260,2012-10-09 03:43:00
10:22 PM,35.6,-5.8,17,30.26,10.0,West,18.4,24.2,N/A,,Clear,260,2012-10-09 04:22:00
11:03 PM,35.6,-2.2,20,30.26,10.0,West,19.6,-,N/A,,Clear,270,2012-10-09 05:03:00
11:25 PM,33.8,-0.4,23,30.26,10.0,West,15.0,-,N/A,,Clear,260,2012-10-09 05:25:00
11:43 PM,33.8,3.2,28,30.25,7.0,West,13.8,19.6,N/A,,Clear,270,2012-10-09 05:43:00